sensor_id;sensor_type;location;lat;lon;timestamp;pressure;altitude;pressure_sealevel;temperature;humidity
60642;BME280;46837;52.446;-1.930;2023-07-13T00:00:12;99972.25;;;16.23;72.94
60642;BME280;46837;52.446;-1.930;2023-07-13T00:01:09;99968.23;;;16.28;72.68
60642;BME280;46837;52.446;-1.930;2023-07-13T00:02:09;99970.55;;;16.28;72.66
60642;BME280;46837;52.446;-1.930;2023-07-13T00:03:09;99972.96;;;16.30;72.62
60642;BME280;46837;52.446;-1.930;2023-07-13T00:04:09;99966.12;;;16.28;72.71
60642;BME280;46837;52.446;-1.930;2023-07-13T00:05:09;99969.19;;;16.29;72.83
60642;BME280;46837;52.446;-1.930;2023-07-13T00:06:09;99969.87;;;16.31;72.71
60642;BME280;46837;52.446;-1.930;2023-07-13T00:07:09;99969.06;;;16.28;72.85
60642;BME280;46837;52.446;-1.930;2023-07-13T00:08:09;99968.70;;;16.33;72.69
60642;BME280;46837;52.446;-1.930;2023-07-13T00:09:09;99969.75;;;16.33;72.67
60642;BME280;46837;52.446;-1.930;2023-07-13T00:10:09;99968.05;;;16.38;72.54
60642;BME280;46837;52.446;-1.930;2023-07-13T00:11:09;99971.05;;;16.41;72.42
60642;BME280;46837;52.446;-1.930;2023-07-13T00:13:09;99971.53;;;16.44;72.38
60642;BME280;46837;52.446;-1.930;2023-07-13T00:14:09;99969.59;;;16.40;72.58
60642;BME280;46837;52.446;-1.930;2023-07-13T00:15:13;99965.71;;;16.41;72.56
60642;BME280;46837;52.446;-1.930;2023-07-13T00:16:09;99965.80;;;16.42;72.41
60642;BME280;46837;52.446;-1.930;2023-07-13T00:17:09;99964.15;;;16.42;72.41
60642;BME280;46837;52.446;-1.930;2023-07-13T00:18:09;99964.20;;;16.42;72.50
60642;BME280;46837;52.446;-1.930;2023-07-13T00:19:09;99962.40;;;16.46;72.31
60642;BME280;46837;52.446;-1.930;2023-07-13T00:20:09;99965.98;;;16.43;72.41
60642;BME280;46837;52.446;-1.930;2023-07-13T00:21:09;99964.26;;;16.43;72.36
60642;BME280;46837;52.446;-1.930;2023-07-13T00:22:09;99965.35;;;16.39;72.52
60642;BME280;46837;52.446;-1.930;2023-07-13T00:23:09;99967.07;;;16.42;72.32
60642;BME280;46837;52.446;-1.930;2023-07-13T00:24:10;99965.69;;;16.42;72.29
60642;BME280;46837;52.446;-1.930;2023-07-13T00:25:11;99963.09;;;16.39;72.39
60642;BME280;46837;52.446;-1.930;2023-07-13T00:26:09;99967.39;;;16.38;72.39
60642;BME280;46837;52.446;-1.930;2023-07-13T00:27:10;99970.90;;;16.40;72.28
60642;BME280;46837;52.446;-1.930;2023-07-13T00:28:09;99967.53;;;16.41;72.27
60642;BME280;46837;52.446;-1.930;2023-07-13T00:29:11;99970.94;;;16.37;72.47
60642;BME280;46837;52.446;-1.930;2023-07-13T00:30:09;99972.20;;;16.37;72.53
60642;BME280;46837;52.446;-1.930;2023-07-13T00:31:09;99976.68;;;16.34;72.54
60642;BME280;46837;52.446;-1.930;2023-07-13T00:32:09;99975.38;;;16.33;72.68
60642;BME280;46837;52.446;-1.930;2023-07-13T00:33:09;99971.29;;;16.33;72.65
60642;BME280;46837;52.446;-1.930;2023-07-13T00:34:09;99977.51;;;16.27;72.88
60642;BME280;46837;52.446;-1.930;2023-07-13T00:35:09;99972.83;;;16.32;72.73
60642;BME280;46837;52.446;-1.930;2023-07-13T00:36:09;99975.55;;;16.32;72.73
60642;BME280;46837;52.446;-1.930;2023-07-13T00:37:09;99977.79;;;16.32;72.84
60642;BME280;46837;52.446;-1.930;2023-07-13T00:38:09;99974.66;;;16.33;72.74
60642;BME280;46837;52.446;-1.930;2023-07-13T00:39:09;99976.41;;;16.36;72.63
60642;BME280;46837;52.446;-1.930;2023-07-13T00:40:10;99979.50;;;16.34;72.76
60642;BME280;46837;52.446;-1.930;2023-07-13T00:41:09;99977.30;;;16.32;72.91
60642;BME280;46837;52.446;-1.930;2023-07-13T00:42:09;99980.61;;;16.32;72.93
60642;BME280;46837;52.446;-1.930;2023-07-13T00:43:14;99977.61;;;16.35;72.83
60642;BME280;46837;52.446;-1.930;2023-07-13T00:44:19;99977.32;;;16.30;72.95
60642;BME280;46837;52.446;-1.930;2023-07-13T00:46:16;99976.72;;;16.30;73.23
60642;BME280;46837;52.446;-1.930;2023-07-13T00:47:09;99977.31;;;16.31;73.31
60642;BME280;46837;52.446;-1.930;2023-07-13T00:48:09;99975.97;;;16.32;73.43
60642;BME280;46837;52.446;-1.930;2023-07-13T00:49:12;99974.61;;;16.33;73.45
60642;BME280;46837;52.446;-1.930;2023-07-13T00:50:14;99974.21;;;16.34;73.44
60642;BME280;46837;52.446;-1.930;2023-07-13T00:51:09;99976.55;;;16.30;73.68
60642;BME280;46837;52.446;-1.930;2023-07-13T00:52:09;99975.59;;;16.32;73.67
60642;BME280;46837;52.446;-1.930;2023-07-13T00:53:09;99973.22;;;16.31;73.74
60642;BME280;46837;52.446;-1.930;2023-07-13T00:54:11;99977.11;;;16.28;73.83
60642;BME280;46837;52.446;-1.930;2023-07-13T00:55:09;99972.63;;;16.25;73.78
60642;BME280;46837;52.446;-1.930;2023-07-13T00:56:09;99971.16;;;16.27;73.79
60642;BME280;46837;52.446;-1.930;2023-07-13T00:57:11;99971.48;;;16.25;73.88
60642;BME280;46837;52.446;-1.930;2023-07-13T00:58:09;99974.38;;;16.26;73.91
60642;BME280;46837;52.446;-1.930;2023-07-13T00:59:09;99975.13;;;16.27;73.85
60642;BME280;46837;52.446;-1.930;2023-07-13T01:00:09;99973.45;;;16.24;73.98
60642;BME280;46837;52.446;-1.930;2023-07-13T01:01:09;99973.02;;;16.23;74.08
60642;BME280;46837;52.446;-1.930;2023-07-13T01:02:09;99975.70;;;16.26;74.06
60642;BME280;46837;52.446;-1.930;2023-07-13T01:03:09;99971.34;;;16.27;74.04
60642;BME280;46837;52.446;-1.930;2023-07-13T01:04:10;99970.36;;;16.26;74.01
60642;BME280;46837;52.446;-1.930;2023-07-13T01:05:11;99972.45;;;16.26;74.07
60642;BME280;46837;52.446;-1.930;2023-07-13T01:06:09;99973.85;;;16.25;74.14
60642;BME280;46837;52.446;-1.930;2023-07-13T01:07:09;99970.61;;;16.29;74.04
60642;BME280;46837;52.446;-1.930;2023-07-13T01:08:09;99968.29;;;16.30;73.96
60642;BME280;46837;52.446;-1.930;2023-07-13T01:09:09;99969.05;;;16.30;74.04
60642;BME280;46837;52.446;-1.930;2023-07-13T01:10:09;99970.38;;;16.30;74.09
60642;BME280;46837;52.446;-1.930;2023-07-13T01:11:09;99972.82;;;16.29;74.16
60642;BME280;46837;52.446;-1.930;2023-07-13T01:12:09;99971.43;;;16.22;74.46
60642;BME280;46837;52.446;-1.930;2023-07-13T01:13:09;99969.10;;;16.14;74.77
60642;BME280;46837;52.446;-1.930;2023-07-13T01:14:09;99962.33;;;16.21;74.67
60642;BME280;46837;52.446;-1.930;2023-07-13T01:16:17;99963.10;;;16.14;74.89
60642;BME280;46837;52.446;-1.930;2023-07-13T01:17:10;99964.09;;;16.14;74.88
60642;BME280;46837;52.446;-1.930;2023-07-13T01:18:11;99965.41;;;16.16;74.82
60642;BME280;46837;52.446;-1.930;2023-07-13T01:19:20;99970.16;;;16.16;74.88
60642;BME280;46837;52.446;-1.930;2023-07-13T01:20:09;99967.82;;;16.17;74.75
60642;BME280;46837;52.446;-1.930;2023-07-13T01:21:09;99976.19;;;16.20;74.74
60642;BME280;46837;52.446;-1.930;2023-07-13T01:22:15;99975.94;;;16.21;74.79
60642;BME280;46837;52.446;-1.930;2023-07-13T01:23:10;99976.23;;;16.22;74.84
60642;BME280;46837;52.446;-1.930;2023-07-13T01:24:09;99974.84;;;16.25;74.73
60642;BME280;46837;52.446;-1.930;2023-07-13T01:25:09;99976.29;;;16.22;74.76
60642;BME280;46837;52.446;-1.930;2023-07-13T01:26:09;99977.65;;;16.23;74.92
60642;BME280;46837;52.446;-1.930;2023-07-13T01:27:09;99972.86;;;16.21;74.99
60642;BME280;46837;52.446;-1.930;2023-07-13T01:28:09;99976.22;;;16.16;75.18
60642;BME280;46837;52.446;-1.930;2023-07-13T01:29:09;99970.47;;;16.19;75.13
60642;BME280;46837;52.446;-1.930;2023-07-13T01:30:09;99974.64;;;16.22;74.98
60642;BME280;46837;52.446;-1.930;2023-07-13T01:31:09;99972.27;;;16.22;75.08
60642;BME280;46837;52.446;-1.930;2023-07-13T01:32:15;99971.59;;;16.23;75.06
60642;BME280;46837;52.446;-1.930;2023-07-13T01:33:09;99978.09;;;16.21;75.21
60642;BME280;46837;52.446;-1.930;2023-07-13T01:34:09;99972.01;;;16.19;75.46
60642;BME280;46837;52.446;-1.930;2023-07-13T01:35:09;99976.50;;;16.21;75.49
60642;BME280;46837;52.446;-1.930;2023-07-13T01:36:09;99974.61;;;16.24;75.48
60642;BME280;46837;52.446;-1.930;2023-07-13T01:37:09;99975.27;;;16.26;75.47
60642;BME280;46837;52.446;-1.930;2023-07-13T01:38:09;99973.62;;;16.24;75.71
60642;BME280;46837;52.446;-1.930;2023-07-13T01:39:09;99971.54;;;16.20;75.91
60642;BME280;46837;52.446;-1.930;2023-07-13T01:40:09;99973.35;;;16.23;75.92
60642;BME280;46837;52.446;-1.930;2023-07-13T01:41:09;99972.79;;;16.26;75.99
60642;BME280;46837;52.446;-1.930;2023-07-13T01:42:09;99973.91;;;16.28;75.97
60642;BME280;46837;52.446;-1.930;2023-07-13T01:43:09;99970.71;;;16.28;75.98
60642;BME280;46837;52.446;-1.930;2023-07-13T01:44:09;99967.08;;;16.29;76.02
60642;BME280;46837;52.446;-1.930;2023-07-13T01:45:09;99972.17;;;16.32;76.03
60642;BME280;46837;52.446;-1.930;2023-07-13T01:46:09;99968.21;;;16.24;76.28
60642;BME280;46837;52.446;-1.930;2023-07-13T01:47:09;99969.69;;;16.27;76.32
60642;BME280;46837;52.446;-1.930;2023-07-13T01:48:09;99969.19;;;16.27;76.44
60642;BME280;46837;52.446;-1.930;2023-07-13T01:49:09;99972.95;;;16.26;76.50
60642;BME280;46837;52.446;-1.930;2023-07-13T01:50:09;99971.93;;;16.28;76.46
60642;BME280;46837;52.446;-1.930;2023-07-13T01:51:09;99972.54;;;16.29;76.39
60642;BME280;46837;52.446;-1.930;2023-07-13T01:52:09;99969.22;;;16.28;76.38
60642;BME280;46837;52.446;-1.930;2023-07-13T01:53:09;99973.68;;;16.25;76.58
60642;BME280;46837;52.446;-1.930;2023-07-13T01:54:09;99970.58;;;16.24;76.71
60642;BME280;46837;52.446;-1.930;2023-07-13T01:55:09;99969.12;;;16.22;76.74
60642;BME280;46837;52.446;-1.930;2023-07-13T01:56:09;99967.58;;;16.22;76.79
60642;BME280;46837;52.446;-1.930;2023-07-13T01:57:09;99964.85;;;16.19;76.97
60642;BME280;46837;52.446;-1.930;2023-07-13T01:58:09;99966.59;;;16.22;76.95
60642;BME280;46837;52.446;-1.930;2023-07-13T01:59:09;99965.03;;;16.23;76.96
60642;BME280;46837;52.446;-1.930;2023-07-13T02:00:10;99969.55;;;16.21;76.98
60642;BME280;46837;52.446;-1.930;2023-07-13T02:01:09;99968.76;;;16.19;77.23
60642;BME280;46837;52.446;-1.930;2023-07-13T02:02:09;99967.52;;;16.21;77.12
60642;BME280;46837;52.446;-1.930;2023-07-13T02:03:09;99968.79;;;16.20;77.17
60642;BME280;46837;52.446;-1.930;2023-07-13T02:04:09;99970.97;;;16.19;77.27
60642;BME280;46837;52.446;-1.930;2023-07-13T02:05:09;99968.69;;;16.13;77.39
60642;BME280;46837;52.446;-1.930;2023-07-13T02:06:09;99966.46;;;16.08;77.60
60642;BME280;46837;52.446;-1.930;2023-07-13T02:07:09;99968.03;;;16.13;77.53
60642;BME280;46837;52.446;-1.930;2023-07-13T02:08:09;99964.27;;;16.15;77.40
60642;BME280;46837;52.446;-1.930;2023-07-13T02:09:09;99963.48;;;16.14;77.47
60642;BME280;46837;52.446;-1.930;2023-07-13T02:10:09;99966.52;;;16.16;77.50
60642;BME280;46837;52.446;-1.930;2023-07-13T02:11:09;99968.98;;;16.17;77.42
60642;BME280;46837;52.446;-1.930;2023-07-13T02:12:09;99962.24;;;16.18;77.48
60642;BME280;46837;52.446;-1.930;2023-07-13T02:13:09;99960.97;;;16.20;77.41
60642;BME280;46837;52.446;-1.930;2023-07-13T02:14:09;99961.89;;;16.21;77.32
60642;BME280;46837;52.446;-1.930;2023-07-13T02:15:09;99963.22;;;16.22;77.30
60642;BME280;46837;52.446;-1.930;2023-07-13T02:16:09;99963.79;;;16.20;77.39
60642;BME280;46837;52.446;-1.930;2023-07-13T02:17:09;99963.51;;;16.19;77.38
60642;BME280;46837;52.446;-1.930;2023-07-13T02:18:09;99962.77;;;16.16;77.41
60642;BME280;46837;52.446;-1.930;2023-07-13T02:19:09;99965.82;;;16.18;77.41
60642;BME280;46837;52.446;-1.930;2023-07-13T02:20:09;99964.61;;;16.22;77.19
60642;BME280;46837;52.446;-1.930;2023-07-13T02:21:09;99963.34;;;16.22;77.26
60642;BME280;46837;52.446;-1.930;2023-07-13T02:22:09;99961.90;;;16.22;77.26
60642;BME280;46837;52.446;-1.930;2023-07-13T02:23:09;99959.71;;;16.25;77.21
60642;BME280;46837;52.446;-1.930;2023-07-13T02:24:09;99960.47;;;16.22;77.32
60642;BME280;46837;52.446;-1.930;2023-07-13T02:25:09;99961.54;;;16.17;77.60
60642;BME280;46837;52.446;-1.930;2023-07-13T02:26:09;99960.91;;;16.22;77.36
60642;BME280;46837;52.446;-1.930;2023-07-13T02:27:09;99955.57;;;16.25;77.26
60642;BME280;46837;52.446;-1.930;2023-07-13T02:28:09;99962.57;;;16.20;77.42
60642;BME280;46837;52.446;-1.930;2023-07-13T02:29:09;99963.96;;;16.19;77.49
60642;BME280;46837;52.446;-1.930;2023-07-13T02:30:09;99962.44;;;16.14;77.63
60642;BME280;46837;52.446;-1.930;2023-07-13T02:31:13;99961.28;;;16.16;77.58
60642;BME280;46837;52.446;-1.930;2023-07-13T02:32:09;99959.57;;;16.07;77.71
60642;BME280;46837;52.446;-1.930;2023-07-13T02:33:09;99958.15;;;16.08;77.89
60642;BME280;46837;52.446;-1.930;2023-07-13T02:34:09;99957.02;;;16.10;77.73
60642;BME280;46837;52.446;-1.930;2023-07-13T02:35:09;99959.93;;;16.13;77.59
60642;BME280;46837;52.446;-1.930;2023-07-13T02:36:09;99957.70;;;16.08;77.79
60642;BME280;46837;52.446;-1.930;2023-07-13T02:37:09;99960.64;;;16.11;77.81
60642;BME280;46837;52.446;-1.930;2023-07-13T02:38:09;99959.34;;;16.09;77.76
60642;BME280;46837;52.446;-1.930;2023-07-13T02:39:13;99958.66;;;16.11;77.73
60642;BME280;46837;52.446;-1.930;2023-07-13T02:40:11;99956.25;;;16.07;77.86
60642;BME280;46837;52.446;-1.930;2023-07-13T02:41:09;99960.35;;;16.08;77.72
60642;BME280;46837;52.446;-1.930;2023-07-13T02:42:09;99956.52;;;16.03;77.82
60642;BME280;46837;52.446;-1.930;2023-07-13T02:43:09;99957.88;;;16.06;77.71
60642;BME280;46837;52.446;-1.930;2023-07-13T02:44:09;99956.20;;;16.09;77.56
60642;BME280;46837;52.446;-1.930;2023-07-13T02:45:09;99955.61;;;16.07;77.64
60642;BME280;46837;52.446;-1.930;2023-07-13T02:46:10;99954.73;;;16.04;77.68
60642;BME280;46837;52.446;-1.930;2023-07-13T02:47:09;99956.23;;;16.05;77.75
60642;BME280;46837;52.446;-1.930;2023-07-13T02:48:09;99953.87;;;15.97;77.90
60642;BME280;46837;52.446;-1.930;2023-07-13T02:49:09;99956.11;;;15.81;78.53
60642;BME280;46837;52.446;-1.930;2023-07-13T02:50:09;99953.25;;;15.79;78.74
60642;BME280;46837;52.446;-1.930;2023-07-13T02:51:09;99952.21;;;15.86;78.45
60642;BME280;46837;52.446;-1.930;2023-07-13T02:52:09;99953.23;;;15.92;78.19
60642;BME280;46837;52.446;-1.930;2023-07-13T02:53:09;99952.89;;;15.93;78.22
60642;BME280;46837;52.446;-1.930;2023-07-13T02:54:09;99954.07;;;15.89;78.25
60642;BME280;46837;52.446;-1.930;2023-07-13T02:55:09;99954.06;;;15.90;78.35
60642;BME280;46837;52.446;-1.930;2023-07-13T02:56:09;99954.56;;;15.91;78.18
60642;BME280;46837;52.446;-1.930;2023-07-13T02:57:09;99954.70;;;15.93;78.09
60642;BME280;46837;52.446;-1.930;2023-07-13T02:58:09;99954.34;;;15.89;78.22
60642;BME280;46837;52.446;-1.930;2023-07-13T02:59:09;99954.01;;;15.89;78.19
60642;BME280;46837;52.446;-1.930;2023-07-13T03:00:10;99954.58;;;15.86;78.30
60642;BME280;46837;52.446;-1.930;2023-07-13T03:01:12;99954.10;;;15.88;78.39
60642;BME280;46837;52.446;-1.930;2023-07-13T03:02:09;99955.96;;;15.90;78.28
60642;BME280;46837;52.446;-1.930;2023-07-13T03:03:09;99951.58;;;15.90;78.44
60642;BME280;46837;52.446;-1.930;2023-07-13T03:04:09;99951.10;;;15.89;78.59
60642;BME280;46837;52.446;-1.930;2023-07-13T03:05:09;99951.93;;;15.91;78.52
60642;BME280;46837;52.446;-1.930;2023-07-13T03:06:10;99949.97;;;15.93;78.25
60642;BME280;46837;52.446;-1.930;2023-07-13T03:07:09;99951.15;;;15.91;78.19
60642;BME280;46837;52.446;-1.930;2023-07-13T03:08:09;99951.20;;;15.94;78.29
60642;BME280;46837;52.446;-1.930;2023-07-13T03:09:09;99949.30;;;15.93;78.32
60642;BME280;46837;52.446;-1.930;2023-07-13T03:10:09;99952.55;;;15.97;78.17
60642;BME280;46837;52.446;-1.930;2023-07-13T03:11:10;99950.99;;;15.98;78.01
60642;BME280;46837;52.446;-1.930;2023-07-13T03:12:09;99955.09;;;15.97;78.14
60642;BME280;46837;52.446;-1.930;2023-07-13T03:13:09;99951.30;;;15.99;78.14
60642;BME280;46837;52.446;-1.930;2023-07-13T03:14:09;99953.27;;;15.97;78.14
60642;BME280;46837;52.446;-1.930;2023-07-13T03:15:09;99953.03;;;15.98;78.14
60642;BME280;46837;52.446;-1.930;2023-07-13T03:16:09;99950.96;;;16.00;78.10
60642;BME280;46837;52.446;-1.930;2023-07-13T03:17:09;99946.85;;;16.01;77.96
60642;BME280;46837;52.446;-1.930;2023-07-13T03:18:09;99946.11;;;16.00;78.09
60642;BME280;46837;52.446;-1.930;2023-07-13T03:19:09;99944.81;;;16.01;77.98
60642;BME280;46837;52.446;-1.930;2023-07-13T03:20:09;99944.25;;;16.01;77.97
60642;BME280;46837;52.446;-1.930;2023-07-13T03:21:09;99944.53;;;16.01;78.03
60642;BME280;46837;52.446;-1.930;2023-07-13T03:22:09;99947.10;;;16.00;78.03
60642;BME280;46837;52.446;-1.930;2023-07-13T03:23:09;99945.64;;;15.99;78.07
60642;BME280;46837;52.446;-1.930;2023-07-13T03:24:09;99945.41;;;15.99;78.11
60642;BME280;46837;52.446;-1.930;2023-07-13T03:25:09;99947.60;;;15.93;78.37
60642;BME280;46837;52.446;-1.930;2023-07-13T03:26:16;99952.24;;;15.92;78.41
60642;BME280;46837;52.446;-1.930;2023-07-13T03:27:09;99954.39;;;15.90;78.59
60642;BME280;46837;52.446;-1.930;2023-07-13T03:28:09;99955.24;;;15.91;78.64
60642;BME280;46837;52.446;-1.930;2023-07-13T03:29:09;99955.63;;;15.90;78.62
60642;BME280;46837;52.446;-1.930;2023-07-13T03:30:09;99952.86;;;15.89;78.77
60642;BME280;46837;52.446;-1.930;2023-07-13T03:31:10;99955.28;;;15.90;78.75
60642;BME280;46837;52.446;-1.930;2023-07-13T03:32:09;99955.04;;;15.93;78.60
60642;BME280;46837;52.446;-1.930;2023-07-13T03:33:09;99956.57;;;15.93;78.54
60642;BME280;46837;52.446;-1.930;2023-07-13T03:34:09;99959.05;;;15.96;78.50
60642;BME280;46837;52.446;-1.930;2023-07-13T03:35:09;99958.00;;;15.96;78.52
60642;BME280;46837;52.446;-1.930;2023-07-13T03:36:14;99957.56;;;15.96;78.52
60642;BME280;46837;52.446;-1.930;2023-07-13T03:37:09;99956.72;;;15.96;78.53
60642;BME280;46837;52.446;-1.930;2023-07-13T03:38:09;99952.06;;;16.00;78.37
60642;BME280;46837;52.446;-1.930;2023-07-13T03:39:11;99958.85;;;15.99;78.40
60642;BME280;46837;52.446;-1.930;2023-07-13T03:40:11;99957.45;;;16.03;78.35
60642;BME280;46837;52.446;-1.930;2023-07-13T03:41:09;99955.18;;;16.03;78.23
60642;BME280;46837;52.446;-1.930;2023-07-13T03:42:09;99958.96;;;16.01;78.40
60642;BME280;46837;52.446;-1.930;2023-07-13T03:43:09;99962.72;;;16.01;78.52
60642;BME280;46837;52.446;-1.930;2023-07-13T03:44:09;99960.50;;;16.04;78.27
60642;BME280;46837;52.446;-1.930;2023-07-13T03:45:09;99961.18;;;16.06;78.23
60642;BME280;46837;52.446;-1.930;2023-07-13T03:46:09;99962.16;;;16.09;78.05
60642;BME280;46837;52.446;-1.930;2023-07-13T03:47:09;99964.02;;;16.10;78.08
60642;BME280;46837;52.446;-1.930;2023-07-13T03:48:09;99966.82;;;16.10;77.91
60642;BME280;46837;52.446;-1.930;2023-07-13T03:49:09;99967.18;;;16.09;78.04
60642;BME280;46837;52.446;-1.930;2023-07-13T03:50:09;99966.93;;;16.12;77.86
60642;BME280;46837;52.446;-1.930;2023-07-13T03:51:09;99965.88;;;16.13;77.82
60642;BME280;46837;52.446;-1.930;2023-07-13T03:52:09;99964.05;;;16.13;77.82
60642;BME280;46837;52.446;-1.930;2023-07-13T03:53:09;99965.18;;;16.10;78.03
60642;BME280;46837;52.446;-1.930;2023-07-13T03:54:09;99965.41;;;16.09;77.87
60642;BME280;46837;52.446;-1.930;2023-07-13T03:55:09;99969.22;;;16.09;77.92
60642;BME280;46837;52.446;-1.930;2023-07-13T03:56:09;99966.80;;;16.08;77.86
60642;BME280;46837;52.446;-1.930;2023-07-13T03:57:09;99966.08;;;16.09;77.96
60642;BME280;46837;52.446;-1.930;2023-07-13T03:59:09;99971.04;;;16.09;77.71
60642;BME280;46837;52.446;-1.930;2023-07-13T04:00:09;99973.23;;;16.09;77.70
60642;BME280;46837;52.446;-1.930;2023-07-13T04:01:09;99971.65;;;16.08;77.75
60642;BME280;46837;52.446;-1.930;2023-07-13T04:02:09;99969.97;;;16.02;78.07
60642;BME280;46837;52.446;-1.930;2023-07-13T04:03:09;99971.14;;;15.99;78.32
60642;BME280;46837;52.446;-1.930;2023-07-13T04:04:09;99969.04;;;16.00;78.20
60642;BME280;46837;52.446;-1.930;2023-07-13T04:05:09;99967.97;;;15.98;78.39
60642;BME280;46837;52.446;-1.930;2023-07-13T04:06:12;99970.31;;;16.00;78.34
60642;BME280;46837;52.446;-1.930;2023-07-13T04:07:09;99971.34;;;16.03;78.15
60642;BME280;46837;52.446;-1.930;2023-07-13T04:08:09;99972.45;;;16.02;78.18
60642;BME280;46837;52.446;-1.930;2023-07-13T04:09:12;99973.55;;;16.00;78.28
60642;BME280;46837;52.446;-1.930;2023-07-13T04:10:09;99974.13;;;16.01;78.23
60642;BME280;46837;52.446;-1.930;2023-07-13T04:11:09;99975.05;;;16.02;78.16
60642;BME280;46837;52.446;-1.930;2023-07-13T04:12:09;99973.45;;;16.02;78.17
60642;BME280;46837;52.446;-1.930;2023-07-13T04:13:09;99974.74;;;16.06;78.02
60642;BME280;46837;52.446;-1.930;2023-07-13T04:14:09;99974.96;;;16.06;78.06
60642;BME280;46837;52.446;-1.930;2023-07-13T04:15:09;99972.62;;;16.07;77.98
60642;BME280;46837;52.446;-1.930;2023-07-13T04:16:09;99979.49;;;16.06;78.06
60642;BME280;46837;52.446;-1.930;2023-07-13T04:17:09;99978.71;;;16.06;77.96
60642;BME280;46837;52.446;-1.930;2023-07-13T04:18:09;99978.14;;;16.07;77.94
60642;BME280;46837;52.446;-1.930;2023-07-13T04:19:09;99980.00;;;16.05;77.98
60642;BME280;46837;52.446;-1.930;2023-07-13T04:20:09;99983.90;;;16.04;77.93
60642;BME280;46837;52.446;-1.930;2023-07-13T04:21:09;99983.20;;;16.00;78.01
60642;BME280;46837;52.446;-1.930;2023-07-13T04:22:09;99982.88;;;16.02;77.88
60642;BME280;46837;52.446;-1.930;2023-07-13T04:23:09;99984.03;;;16.02;77.83
60642;BME280;46837;52.446;-1.930;2023-07-13T04:24:09;99987.68;;;16.02;77.76
60642;BME280;46837;52.446;-1.930;2023-07-13T04:25:09;99987.17;;;15.95;77.89
60642;BME280;46837;52.446;-1.930;2023-07-13T04:26:09;99989.30;;;15.96;77.86
60642;BME280;46837;52.446;-1.930;2023-07-13T04:27:09;99983.30;;;15.95;77.81
60642;BME280;46837;52.446;-1.930;2023-07-13T04:28:09;99985.21;;;15.91;77.85
60642;BME280;46837;52.446;-1.930;2023-07-13T04:29:09;99983.30;;;15.90;77.84
60642;BME280;46837;52.446;-1.930;2023-07-13T04:30:09;99984.36;;;15.87;77.94
60642;BME280;46837;52.446;-1.930;2023-07-13T04:31:09;99984.79;;;15.85;77.96
60642;BME280;46837;52.446;-1.930;2023-07-13T04:32:09;99983.86;;;15.85;77.89
60642;BME280;46837;52.446;-1.930;2023-07-13T04:33:09;99988.61;;;15.84;77.99
60642;BME280;46837;52.446;-1.930;2023-07-13T04:34:09;99984.13;;;15.77;78.09
60642;BME280;46837;52.446;-1.930;2023-07-13T04:35:09;99986.64;;;15.81;78.11
60642;BME280;46837;52.446;-1.930;2023-07-13T04:36:09;99987.18;;;15.82;78.00
60642;BME280;46837;52.446;-1.930;2023-07-13T04:37:09;99986.48;;;15.81;78.12
60642;BME280;46837;52.446;-1.930;2023-07-13T04:38:09;99986.76;;;15.80;78.12
60642;BME280;46837;52.446;-1.930;2023-07-13T04:39:09;99987.85;;;15.81;78.06
60642;BME280;46837;52.446;-1.930;2023-07-13T04:40:09;99987.20;;;15.78;78.32
60642;BME280;46837;52.446;-1.930;2023-07-13T04:41:09;99988.62;;;15.81;78.20
60642;BME280;46837;52.446;-1.930;2023-07-13T04:42:09;99989.21;;;15.77;78.22
60642;BME280;46837;52.446;-1.930;2023-07-13T04:43:09;99991.79;;;15.77;78.25
60642;BME280;46837;52.446;-1.930;2023-07-13T04:44:09;99990.57;;;15.78;78.10
60642;BME280;46837;52.446;-1.930;2023-07-13T04:45:09;99988.65;;;15.77;78.08
60642;BME280;46837;52.446;-1.930;2023-07-13T04:46:11;99987.84;;;15.74;78.17
60642;BME280;46837;52.446;-1.930;2023-07-13T04:47:09;99992.46;;;15.74;78.23
60642;BME280;46837;52.446;-1.930;2023-07-13T04:48:09;99990.74;;;15.69;78.34
60642;BME280;46837;52.446;-1.930;2023-07-13T04:49:09;99991.50;;;15.70;78.29
60642;BME280;46837;52.446;-1.930;2023-07-13T04:50:09;99994.47;;;15.68;78.21
60642;BME280;46837;52.446;-1.930;2023-07-13T04:51:09;99993.63;;;15.62;78.49
60642;BME280;46837;52.446;-1.930;2023-07-13T04:52:09;99992.32;;;15.61;78.47
60642;BME280;46837;52.446;-1.930;2023-07-13T04:53:09;99995.66;;;15.59;78.44
60642;BME280;46837;52.446;-1.930;2023-07-13T04:54:09;99995.16;;;15.59;78.49
60642;BME280;46837;52.446;-1.930;2023-07-13T04:55:09;99994.48;;;15.60;78.47
60642;BME280;46837;52.446;-1.930;2023-07-13T04:56:09;99993.24;;;15.58;78.50
60642;BME280;46837;52.446;-1.930;2023-07-13T04:57:09;99995.46;;;15.50;78.83
60642;BME280;46837;52.446;-1.930;2023-07-13T04:58:09;99994.59;;;15.51;78.76
60642;BME280;46837;52.446;-1.930;2023-07-13T04:59:09;99998.10;;;15.53;78.65
60642;BME280;46837;52.446;-1.930;2023-07-13T05:00:09;99994.36;;;15.53;78.60
60642;BME280;46837;52.446;-1.930;2023-07-13T05:01:09;100000.23;;;15.45;78.81
60642;BME280;46837;52.446;-1.930;2023-07-13T05:02:09;100002.34;;;15.41;78.90
60642;BME280;46837;52.446;-1.930;2023-07-13T05:03:09;100002.66;;;15.43;78.84
60642;BME280;46837;52.446;-1.930;2023-07-13T05:04:09;100003.43;;;15.44;78.77
60642;BME280;46837;52.446;-1.930;2023-07-13T05:05:09;100001.72;;;15.40;78.82
60642;BME280;46837;52.446;-1.930;2023-07-13T05:06:09;100001.78;;;15.40;78.95
60642;BME280;46837;52.446;-1.930;2023-07-13T05:07:09;100003.25;;;15.40;78.95
60642;BME280;46837;52.446;-1.930;2023-07-13T05:08:09;100006.90;;;15.42;78.88
60642;BME280;46837;52.446;-1.930;2023-07-13T05:09:09;100006.90;;;15.42;78.88
60642;BME280;46837;52.446;-1.930;2023-07-13T05:10:09;100006.72;;;15.40;78.90
60642;BME280;46837;52.446;-1.930;2023-07-13T05:11:09;100006.31;;;15.36;79.18
60642;BME280;46837;52.446;-1.930;2023-07-13T05:12:09;100007.79;;;15.39;79.09
60642;BME280;46837;52.446;-1.930;2023-07-13T05:13:09;100006.31;;;15.41;78.95
60642;BME280;46837;52.446;-1.930;2023-07-13T05:14:09;100009.43;;;15.40;79.03
60642;BME280;46837;52.446;-1.930;2023-07-13T05:15:09;100009.26;;;15.43;78.93
60642;BME280;46837;52.446;-1.930;2023-07-13T05:16:09;100007.05;;;15.40;79.04
60642;BME280;46837;52.446;-1.930;2023-07-13T05:17:09;100010.21;;;15.41;79.07